VYYY/RGN METAR and TAF weather

Enter ICAO airport designator
Station Type Date Time Source
VYYY METAR 2021/05/14 03:30 UTC NOAA

VYYY 140330Z 34008KT 8000 FEW020 34/24 Q1007 NOSIG


Station Type Date Time Source
VYYY Decoded METAR 2021/05/14 03:30 UTC NOAA

Yangon, Myanmar (VYYY) 16-46N 096-10E 15M
May 13, 2021 - 11:30 PM EDT / 2021.05.14 0330 UTC
Wind: from the NNW (340 degrees) at 9 MPH (8 KT):0
Visibility: 4 mile(s):0
Sky conditions: mostly clear
Temperature: 93 F (34 C)
Heat index: 104.5 F (40.3 C):1
Dew Point: 75 F (24 C)
Relative Humidity: 56%
Pressure (altimeter): 29.74 in. Hg (1007 hPa)
ob: VYYY 140330Z 34008KT 8000 FEW020 34/24 Q1007 NOSIG
cycle: 3

Station Type Date Time Source
VYYY TAF 2021/05/13 18:39 UTC NOAA

TAF TAF VYYY 131700Z 1318/1418 24006KT 7000 SCT018 FEW020CB BKN110
TEMPO 1318/1324 25006KT 6000 FEW016 FEW018CB SCT100

Example: see airport list